Sebring Express — HP7667 — position and weather

sailwx.info

Track history (hours):
 
Tides and Currents Weather Stations Pressure Air Temp Water Temp Dewpoint Dewpoint Depression Visibility Wind Speed Wind Dir Waves Ship Positions

Sebring Express

Last reported at 2017-Sep-10 21:49 UTC. Time now 2017-Sep-19 15:13 UTC.
Position N 04°54' E 000°27'.
Warning: this ship's position is 8 days out of date.

Length 180 m; draft 8 m.

Type: Cargo ship. MMSI: 354946000.

Date/timePositionNaut miles runAvg speedWind from/ knotsBaromVisibWave heightAir tempDewpointWater temp
2017-Sep-10 21:49N 04°54' E 000°27'715.3
2017-Sep-10 21:20N 04°50' E 000°21'1415.9
2017-Sep-10 20:28N 04°45' E 000°08'816.1
2017-Sep-10 19:58N 04°41' E 000°01'816.1
2017-Sep-10 19:29N 04°39' W 000°06'816.0
2017-Sep-10 19:00N 04°35' W 000°13'816.0
2017-Sep-10 18:30N 04°31' W 000°20'  
2017-Sep-02 18:55N 15°23' W 017°51'10313.4
2017-Sep-02 11:17N 17°06' W 017°52'16112.9
2017-Sep-01 22:43N 19°47' W 017°55'7912.6
2017-Sep-01 16:30N 21°06' W 017°54'16313.1
2017-Sep-01 04:01N 23°39' W 016°51'5413.2
2017-Aug-31 23:55N 24°25' W 016°21'513.3
2017-Aug-31 23:30N 24°29' W 016°17'713.4
2017-Aug-31 22:57N 24°36' W 016°13'813.5
2017-Aug-31 22:23N 24°42' W 016°08'713.4
2017-Aug-31 21:53N 24°48' W 016°04'  
Track history (hours):
 
Tides and Currents Weather Stations Pressure Air Temp Water Temp Dewpoint Dewpoint Depression Visibility Wind Speed Wind Dir Waves Ship Positions

Sebring Express

Last reported at 2017-Sep-10 21:49 UTC. Time now 2017-Sep-19 15:13 UTC.
Position N 04°54' E 000°27'.
Warning: this ship's position is 8 days out of date.

Length 180 m; draft 8 m.

Type: Cargo ship. MMSI: 354946000.

Date/timePositionNaut miles runAvg speedWind from/ knotsBaromVisibWave heightAir tempDewpointWater temp
2017-Sep-10 21:49N 04°54' E 000°27'715.3
2017-Sep-10 21:20N 04°50' E 000°21'1415.9
2017-Sep-10 20:28N 04°45' E 000°08'816.1
2017-Sep-10 19:58N 04°41' E 000°01'816.1
2017-Sep-10 19:29N 04°39' W 000°06'816.0
2017-Sep-10 19:00N 04°35' W 000°13'816.0
2017-Sep-10 18:30N 04°31' W 000°20'  
2017-Sep-02 18:55N 15°23' W 017°51'10313.4
2017-Sep-02 11:17N 17°06' W 017°52'16112.9
2017-Sep-01 22:43N 19°47' W 017°55'7912.6
2017-Sep-01 16:30N 21°06' W 017°54'16313.1
2017-Sep-01 04:01N 23°39' W 016°51'5413.2
2017-Aug-31 23:55N 24°25' W 016°21'513.3
2017-Aug-31 23:30N 24°29' W 016°17'713.4
2017-Aug-31 22:57N 24°36' W 016°13'813.5
2017-Aug-31 22:23N 24°42' W 016°08'713.4
2017-Aug-31 21:53N 24°48' W 016°04'  

Dump ship's entire track history